createdAt,value
2023-03-28T00:01:16.330Z,8.40
2023-03-28T00:03:43.406Z,8.40
2023-03-28T00:06:16.844Z,8.40
2023-03-28T00:08:47.873Z,8.30
2023-03-28T00:11:20.780Z,8.30
2023-03-28T00:14:01.493Z,8.30
2023-03-28T00:16:32.616Z,8.30
2023-03-28T00:19:06.621Z,8.40
2023-03-28T00:21:41.379Z,8.30
2023-03-28T00:24:13.734Z,8.40
2023-03-28T00:26:45.325Z,8.40
2023-03-28T00:29:16.638Z,8.40
2023-03-28T00:31:48.321Z,8.40
2023-03-28T00:34:16.057Z,8.40
2023-03-28T00:36:45.512Z,8.40
2023-03-28T00:39:15.362Z,8.40
2023-03-28T00:41:44.669Z,8.40
2023-03-28T00:44:48.568Z,8.40
2023-03-28T00:47:43.977Z,8.40
2023-03-28T00:50:28.222Z,8.30
2023-03-28T00:53:10.428Z,8.40
2023-03-28T00:55:45.718Z,8.30
2023-03-28T00:58:18.056Z,8.30
2023-03-28T01:00:46.891Z,8.30
2023-03-28T01:03:18.802Z,8.30
2023-03-28T01:05:47.945Z,8.30
2023-03-28T01:08:26.781Z,8.30
2023-03-28T01:10:54.209Z,8.30
2023-03-28T01:13:28.263Z,8.30
2023-03-28T01:15:55.794Z,8.30
2023-03-28T01:18:23.418Z,8.20
2023-03-28T01:21:07.986Z,8.20
2023-03-28T01:24:21.852Z,8.20
2023-03-28T01:27:14.590Z,8.20
2023-03-28T01:30:14.874Z,8.20
2023-03-28T01:33:22.189Z,8.20
2023-03-28T01:36:35.315Z,8.10
2023-03-28T01:39:52.019Z,8.10
2023-03-28T01:42:38.056Z,8.10
2023-03-28T01:45:19.156Z,8.10
2023-03-28T01:48:24.919Z,8.00
2023-03-28T01:51:12.913Z,8.10
2023-03-28T01:53:56.360Z,8.10
2023-03-28T01:56:39.899Z,8.10
2023-03-28T01:59:45.630Z,8.10
2023-03-28T02:02:30.638Z,8.00
2023-03-28T02:05:04.250Z,8.00
2023-03-28T02:07:35.242Z,8.00
2023-03-28T02:10:07.188Z,8.00
2023-03-28T02:12:48.501Z,8.00
2023-03-28T02:15:19.180Z,8.00
2023-03-28T02:17:52.841Z,8.00
2023-03-28T02:20:28.023Z,8.00
2023-03-28T02:23:22.998Z,8.00
2023-03-28T02:25:52.581Z,8.00
2023-03-28T02:28:20.405Z,7.90
2023-03-28T02:30:47.596Z,8.00
2023-03-28T02:33:39.110Z,8.00
2023-03-28T02:36:50.453Z,7.90
2023-03-28T02:39:23.034Z,7.90
2023-03-28T02:42:32.972Z,7.90
2023-03-28T02:45:23.236Z,7.90
2023-03-28T02:48:35.710Z,7.80
2023-03-28T02:51:17.597Z,7.80
2023-03-28T02:54:23.273Z,7.80
2023-03-28T02:57:01.868Z,7.80
2023-03-28T02:59:48.850Z,7.80
2023-03-28T03:02:23.222Z,7.80
2023-03-28T03:04:51.282Z,7.70
2023-03-28T03:07:21.789Z,7.80
2023-03-28T03:09:53.593Z,7.70
2023-03-28T03:12:24.072Z,7.70
2023-03-28T03:14:51.109Z,7.60
2023-03-28T03:17:18.950Z,7.60
2023-03-28T03:19:48.452Z,7.60
2023-03-28T03:22:20.891Z,7.60
2023-03-28T03:24:51.129Z,7.60
2023-03-28T03:27:19.335Z,7.50
2023-03-28T03:29:46.511Z,7.50
2023-03-28T03:32:15.968Z,7.40
2023-03-28T03:34:42.876Z,7.40
2023-03-28T03:37:10.027Z,7.40
2023-03-28T03:39:36.919Z,7.30
2023-03-28T03:42:04.367Z,7.40
2023-03-28T03:44:31.559Z,7.30
2023-03-28T03:46:58.471Z,7.30
2023-03-28T03:49:25.621Z,7.20
2023-03-28T03:51:52.514Z,7.20
2023-03-28T03:54:21.619Z,7.20
2023-03-28T03:56:48.634Z,7.20
2023-03-28T03:59:18.521Z,7.10
2023-03-28T04:01:50.248Z,7.10
2023-03-28T04:04:19.701Z,7.10
2023-03-28T04:06:46.539Z,7.10
2023-03-28T04:09:13.523Z,7.10
2023-03-28T04:11:40.364Z,7.00
2023-03-28T04:14:07.282Z,7.00
2023-03-28T04:16:40.532Z,7.00
2023-03-28T04:19:10.747Z,7.00
2023-03-28T04:21:41.608Z,7.00
2023-03-28T04:24:15.328Z,6.90
2023-03-28T04:26:45.879Z,6.90
2023-03-28T04:29:13.311Z,6.90
2023-03-28T04:31:49.786Z,6.90
2023-03-28T04:34:20.162Z,6.90
2023-03-28T04:36:47.126Z,6.80
2023-03-28T04:39:14.170Z,6.80
2023-03-28T04:41:46.282Z,6.80
2023-03-28T04:44:16.140Z,6.70
2023-03-28T04:46:42.941Z,6.70
2023-03-28T04:49:11.950Z,6.70
2023-03-28T04:51:41.233Z,6.60
2023-03-28T04:54:11.257Z,6.60
2023-03-28T04:56:38.252Z,6.50
2023-03-28T04:59:07.430Z,6.50
2023-03-28T05:01:36.609Z,6.40
2023-03-28T05:04:03.698Z,6.40
2023-03-28T05:06:30.599Z,6.30
2023-03-28T05:08:57.785Z,6.30
2023-03-28T05:11:27.139Z,6.20
2023-03-28T05:13:54.017Z,6.20
2023-03-28T05:16:25.578Z,6.20
2023-03-28T05:18:56.205Z,6.20
2023-03-28T05:21:25.900Z,6.10
2023-03-28T05:23:52.896Z,6.20
2023-03-28T05:26:19.733Z,6.20
2023-03-28T05:28:47.156Z,6.30
2023-03-28T05:31:17.371Z,6.30
2023-03-28T05:33:44.483Z,6.30
2023-03-28T05:36:14.368Z,6.30
2023-03-28T05:38:41.297Z,6.30
2023-03-28T05:41:10.661Z,6.30
2023-03-28T05:43:40.168Z,6.30
2023-03-28T05:46:09.772Z,6.30
2023-03-28T05:48:39.158Z,6.30
2023-03-28T05:51:09.165Z,6.30
2023-03-28T05:53:36.136Z,6.30
2023-03-28T05:56:03.138Z,6.30
2023-03-28T05:58:30.015Z,6.30
2023-03-28T06:01:04.484Z,6.30
2023-03-28T06:03:32.136Z,6.30
2023-03-28T06:05:59.909Z,6.30
2023-03-28T06:08:27.437Z,6.30
2023-03-28T06:11:00.448Z,6.30
2023-03-28T06:13:27.748Z,6.40
2023-03-28T06:15:59.229Z,6.40
2023-03-28T06:18:28.243Z,6.40
2023-03-28T06:20:57.315Z,6.40
2023-03-28T06:23:24.998Z,6.50
2023-03-28T06:25:51.969Z,6.50
2023-03-28T06:28:18.902Z,6.50
2023-03-28T06:30:52.902Z,6.60
2023-03-28T06:33:19.828Z,6.60
2023-03-28T06:35:49.294Z,6.60
2023-03-28T06:38:16.192Z,6.70
2023-03-28T06:40:45.927Z,6.80
2023-03-28T06:43:14.864Z,6.80
2023-03-28T06:45:48.951Z,6.90
2023-03-28T06:48:18.776Z,6.90
2023-03-28T06:50:50.140Z,7.00
2023-03-28T06:53:18.320Z,7.10
2023-03-28T06:55:46.040Z,7.10
2023-03-28T06:58:13.235Z,7.20
2023-03-28T07:00:40.303Z,7.30
2023-03-28T07:03:07.477Z,7.40
2023-03-28T07:05:40.254Z,7.40
2023-03-28T07:08:13.749Z,7.50
2023-03-28T07:10:41.916Z,7.60
2023-03-28T07:13:09.109Z,7.70
2023-03-28T07:15:36.286Z,7.90
2023-03-28T07:18:03.431Z,8.00
2023-03-28T07:20:30.403Z,8.30
2023-03-28T07:22:57.392Z,8.50
2023-03-28T07:25:25.960Z,8.80
2023-03-28T07:27:58.014Z,9.00
2023-03-28T07:30:25.569Z,9.30
2023-03-28T07:33:09.355Z,9.60
2023-03-28T07:35:41.743Z,9.80
2023-03-28T07:38:10.072Z,10.20
2023-03-28T07:40:37.024Z,10.50
2023-03-28T07:43:04.097Z,10.80
2023-03-28T07:45:31.519Z,11.10
2023-03-28T07:48:00.939Z,11.40
2023-03-28T07:50:36.635Z,11.70
2023-03-28T07:53:06.546Z,11.90
2023-03-28T07:58:08.912Z,12.50
2023-03-28T08:00:40.882Z,12.90
2023-03-28T08:03:12.371Z,13.30
2023-03-28T08:05:39.549Z,13.80
2023-03-28T08:08:07.960Z,14.00
2023-03-28T08:10:35.610Z,14.70
2023-03-28T08:13:02.454Z,15.20
2023-03-28T08:15:29.413Z,15.70
2023-03-28T08:17:56.379Z,16.00
2023-03-28T08:20:25.751Z,16.30
2023-03-28T08:22:54.827Z,16.50
2023-03-28T08:25:24.231Z,16.80
2023-03-28T08:27:51.081Z,17.10
2023-03-28T08:30:20.575Z,17.40
2023-03-28T08:32:51.030Z,17.70
2023-03-28T08:35:22.819Z,18.00
2023-03-28T08:37:51.329Z,18.20
2023-03-28T08:40:23.256Z,18.40
2023-03-28T08:42:56.649Z,18.40
2023-03-28T08:45:43.560Z,18.40
2023-03-28T08:48:16.522Z,18.30
2023-03-28T08:50:51.543Z,18.30
2023-03-28T08:53:26.492Z,18.30
2023-03-28T08:55:57.592Z,18.40
2023-03-28T08:58:31.758Z,18.30
2023-03-28T09:01:01.742Z,18.30
2023-03-28T09:03:36.316Z,18.20
2023-03-28T09:06:29.544Z,18.20
2023-03-28T09:09:39.747Z,18.30
2023-03-28T09:12:31.903Z,18.20
2023-03-28T09:15:18.644Z,18.30
2023-03-28T09:18:31.758Z,18.30
2023-03-28T09:21:18.929Z,18.30
2023-03-28T09:24:02.290Z,18.20
2023-03-28T09:26:47.804Z,18.20
2023-03-28T09:29:19.258Z,18.00
2023-03-28T09:31:51.396Z,17.90
2023-03-28T09:34:27.768Z,17.60
2023-03-28T09:37:31.060Z,17.70
2023-03-28T09:40:08.292Z,17.70
2023-03-28T09:43:07.690Z,17.70
2023-03-28T09:45:46.759Z,17.70
2023-03-28T09:48:29.463Z,17.60
2023-03-28T09:50:59.033Z,17.60
2023-03-28T09:53:36.201Z,17.50
2023-03-28T09:56:38.628Z,17.40
2023-03-28T09:59:21.643Z,17.30
2023-03-28T10:01:53.279Z,17.10
2023-03-28T10:04:29.968Z,17.00
2023-03-28T10:07:30.389Z,16.80
2023-03-28T10:10:02.382Z,16.60
2023-03-28T10:12:43.643Z,16.40
2023-03-28T10:15:46.871Z,16.30
2023-03-28T10:18:20.901Z,16.30
2023-03-28T10:20:52.112Z,16.30
2023-03-28T10:23:24.573Z,16.40
2023-03-28T10:26:01.361Z,16.40
2023-03-28T10:28:37.836Z,16.50
2023-03-28T10:31:06.079Z,16.50
2023-03-28T10:33:42.649Z,16.50
2023-03-28T10:36:16.731Z,16.60
2023-03-28T10:38:44.178Z,16.60
2023-03-28T10:41:26.540Z,16.60
2023-03-28T10:43:55.850Z,16.60
2023-03-28T10:46:41.193Z,16.70
2023-03-28T10:49:17.783Z,16.70
2023-03-28T10:51:45.812Z,16.70
2023-03-28T10:54:58.051Z,16.70
2023-03-28T10:57:42.126Z,16.60
2023-03-28T11:00:29.396Z,16.60
2023-03-28T11:03:10.493Z,16.60
2023-03-28T11:06:05.757Z,16.60
2023-03-28T11:09:07.971Z,16.60
2023-03-28T11:11:59.189Z,16.60
2023-03-28T11:14:48.862Z,16.60
2023-03-28T11:17:57.710Z,16.50
2023-03-28T11:20:32.000Z,16.50
2023-03-28T11:23:21.767Z,16.40
2023-03-28T11:26:09.589Z,16.40
2023-03-28T11:29:07.198Z,16.40
2023-03-28T11:31:46.153Z,16.40
2023-03-28T11:34:43.342Z,16.40
2023-03-28T11:37:31.318Z,16.40
2023-03-28T11:40:17.257Z,16.40
2023-03-28T11:43:26.441Z,16.40
2023-03-28T11:46:13.046Z,16.40
2023-03-28T11:48:53.115Z,16.40
2023-03-28T11:51:38.942Z,16.40
2023-03-28T11:54:20.516Z,16.30
2023-03-28T11:57:39.522Z,16.20
2023-03-28T12:03:14.305Z,16.00
2023-03-28T12:05:52.488Z,15.90
2023-03-28T12:08:57.239Z,15.90
2023-03-28T12:11:56.444Z,15.90
2023-03-28T12:14:37.561Z,15.90
2023-03-28T12:17:18.746Z,16.00
2023-03-28T12:19:48.597Z,16.00
2023-03-28T12:22:32.375Z,16.10
2023-03-28T12:25:28.997Z,16.10
2023-03-28T12:28:11.000Z,16.10
2023-03-28T12:30:48.854Z,16.10
2023-03-28T12:33:47.479Z,16.10
2023-03-28T12:36:36.775Z,16.10
2023-03-28T12:39:34.965Z,16.00
2023-03-28T12:42:12.439Z,16.00
2023-03-28T12:44:46.497Z,15.90
2023-03-28T12:47:24.603Z,15.80
2023-03-28T12:50:03.059Z,15.60
2023-03-28T12:52:38.151Z,15.60
2023-03-28T12:55:28.878Z,15.50
2023-03-28T12:58:28.415Z,15.40
2023-03-28T13:01:07.639Z,15.40
2023-03-28T13:04:30.911Z,15.40
2023-03-28T13:07:21.332Z,15.40
2023-03-28T13:10:24.325Z,15.40
2023-03-28T13:13:13.149Z,15.40
2023-03-28T13:16:08.822Z,15.30
2023-03-28T13:19:04.334Z,15.20
2023-03-28T13:21:44.823Z,15.20
2023-03-28T13:24:35.981Z,15.10
2023-03-28T13:27:33.158Z,15.10
2023-03-28T13:30:15.402Z,15.10
2023-03-28T13:32:52.514Z,15.10
2023-03-28T13:35:37.886Z,15.10
2023-03-28T13:38:29.377Z,15.10
2023-03-28T13:41:06.629Z,15.10
2023-03-28T13:43:43.178Z,15.10
2023-03-28T13:46:28.621Z,15.10
2023-03-28T13:49:10.781Z,15.10
2023-03-28T13:51:49.728Z,15.10
2023-03-28T13:54:16.777Z,15.10
2023-03-28T13:56:47.194Z,15.10
2023-03-28T13:59:23.890Z,15.10
2023-03-28T14:01:55.438Z,15.20
2023-03-28T14:04:27.479Z,15.30
2023-03-28T14:06:57.250Z,15.30
2023-03-28T14:09:27.720Z,15.40
2023-03-28T14:12:05.211Z,15.40
2023-03-28T14:14:50.358Z,15.40
2023-03-28T14:17:28.182Z,15.30
2023-03-28T14:20:08.000Z,15.30
2023-03-28T14:22:52.702Z,15.30
2023-03-28T14:25:26.528Z,15.30
2023-03-28T14:27:56.754Z,15.10
2023-03-28T14:30:28.548Z,15.10
2023-03-28T14:33:16.350Z,15.10
2023-03-28T14:35:46.459Z,15.00
2023-03-28T14:38:16.773Z,15.00
2023-03-28T14:40:45.700Z,14.90
2023-03-28T14:43:13.696Z,14.90
2023-03-28T14:45:48.000Z,14.80
2023-03-28T14:48:22.020Z,14.70
2023-03-28T14:50:52.951Z,14.60
2023-03-28T14:53:34.571Z,14.50
2023-03-28T14:56:13.778Z,14.30
2023-03-28T14:58:44.084Z,14.40
2023-03-28T15:01:22.658Z,14.40
2023-03-28T15:04:06.632Z,14.30
2023-03-28T15:06:40.569Z,14.30
2023-03-28T15:09:29.237Z,14.30
2023-03-28T15:12:07.982Z,14.30
2023-03-28T15:14:41.222Z,14.40
2023-03-28T15:17:23.853Z,14.40
2023-03-28T15:19:58.120Z,14.30
2023-03-28T15:22:29.689Z,14.20
2023-03-28T15:24:57.067Z,14.20
2023-03-28T15:27:35.725Z,14.00
2023-03-28T15:30:16.131Z,14.10
2023-03-28T15:32:48.450Z,14.10
2023-03-28T15:35:33.048Z,14.00
2023-03-28T15:38:05.734Z,13.90
2023-03-28T15:40:45.990Z,13.90
2023-03-28T15:43:31.972Z,13.90
2023-03-28T15:46:02.270Z,13.80
2023-03-28T15:48:36.397Z,13.80
2023-03-28T15:51:21.978Z,13.70
2023-03-28T15:53:50.903Z,13.70
2023-03-28T15:56:25.248Z,13.70
2023-03-28T15:59:01.948Z,13.60
2023-03-28T16:01:32.462Z,13.60
2023-03-28T16:04:28.650Z,13.50
2023-03-28T16:07:14.067Z,13.40
2023-03-28T16:09:47.803Z,13.40
2023-03-28T16:12:15.844Z,13.40
2023-03-28T16:14:49.178Z,13.40
2023-03-28T16:17:16.209Z,13.40
2023-03-28T16:19:45.333Z,13.40
2023-03-28T16:22:12.276Z,13.30
2023-03-28T16:24:41.441Z,13.30
2023-03-28T16:27:08.404Z,13.30
2023-03-28T16:29:35.366Z,13.30
2023-03-28T16:32:02.268Z,13.30
2023-03-28T16:34:32.259Z,13.30
2023-03-28T16:36:59.198Z,13.30
2023-03-28T16:39:28.492Z,13.30
2023-03-28T16:41:55.433Z,13.30
2023-03-28T16:44:24.693Z,13.40
2023-03-28T16:46:53.928Z,13.40
2023-03-28T16:51:55.753Z,13.40
2023-03-28T16:54:24.140Z,13.50
2023-03-28T16:56:51.222Z,13.50
2023-03-28T16:59:20.836Z,13.50
2023-03-28T17:01:48.603Z,13.50
2023-03-28T17:04:15.847Z,13.50
2023-03-28T17:06:42.747Z,13.50
2023-03-28T17:09:12.106Z,13.50
2023-03-28T17:11:42.747Z,13.40
2023-03-28T17:14:09.648Z,13.30
2023-03-28T17:16:40.586Z,13.20
2023-03-28T17:19:09.815Z,13.20
2023-03-28T17:21:37.518Z,13.10
2023-03-28T17:24:11.229Z,13.00
2023-03-28T17:26:41.290Z,13.00
2023-03-28T17:29:09.961Z,13.00
2023-03-28T17:31:37.162Z,13.00
2023-03-28T17:34:04.587Z,13.00
2023-03-28T17:36:34.837Z,13.00
2023-03-28T17:39:06.890Z,12.90
2023-03-28T17:41:33.797Z,12.90
2023-03-28T17:44:00.977Z,12.90
2023-03-28T17:46:28.088Z,12.80
2023-03-28T17:48:55.403Z,12.80
2023-03-28T17:51:22.705Z,12.70
2023-03-28T17:53:54.713Z,12.70
2023-03-28T17:56:24.493Z,12.70
2023-03-28T17:58:51.910Z,12.60
2023-03-28T18:01:19.779Z,12.60
2023-03-28T18:03:51.622Z,12.60
2023-03-28T18:06:18.718Z,12.60
2023-03-28T18:08:48.333Z,12.60
2023-03-28T18:11:20.239Z,12.60
2023-03-28T18:13:52.570Z,12.60
2023-03-28T18:16:19.613Z,12.60
2023-03-28T18:18:48.900Z,12.60
2023-03-28T18:21:18.770Z,12.50
2023-03-28T18:23:48.226Z,12.50
2023-03-28T18:26:15.588Z,12.50
2023-03-28T18:28:42.835Z,12.50
2023-03-28T18:31:16.632Z,12.40
2023-03-28T18:33:46.605Z,12.40
2023-03-28T18:36:16.385Z,12.30
2023-03-28T18:38:44.585Z,12.30
2023-03-28T18:41:14.458Z,12.30
2023-03-28T18:43:45.593Z,12.30
2023-03-28T18:46:16.192Z,12.30
2023-03-28T18:48:44.837Z,12.30
2023-03-28T18:51:11.938Z,12.30
2023-03-28T18:53:38.963Z,12.30
2023-03-28T18:56:09.383Z,12.30
2023-03-28T18:58:39.484Z,12.30
2023-03-28T19:01:11.372Z,12.30
2023-03-28T19:03:42.449Z,12.30
2023-03-28T19:06:15.099Z,12.40
2023-03-28T19:08:45.118Z,12.40
2023-03-28T19:11:17.010Z,12.40
2023-03-28T19:13:46.813Z,12.30
2023-03-28T19:16:18.464Z,12.30
2023-03-28T19:18:46.879Z,12.30
2023-03-28T19:21:16.714Z,12.10
2023-03-28T19:23:48.614Z,12.20
2023-03-28T19:26:18.832Z,12.30
2023-03-28T19:28:49.525Z,12.30
2023-03-28T19:31:17.879Z,12.30
2023-03-28T19:33:47.497Z,12.30
2023-03-28T19:36:14.548Z,12.30
2023-03-28T19:38:41.498Z,12.30
2023-03-28T19:41:20.034Z,12.30
2023-03-28T19:43:49.462Z,12.40
2023-03-28T19:46:32.399Z,12.40
2023-03-28T19:49:06.326Z,12.40
2023-03-28T19:51:34.286Z,12.40
2023-03-28T19:54:01.523Z,12.40
2023-03-28T19:56:33.468Z,12.40
2023-03-28T19:59:00.591Z,12.40
2023-03-28T20:01:27.717Z,12.40
2023-03-28T20:03:54.844Z,12.30
2023-03-28T20:06:23.485Z,12.30
2023-03-28T20:08:55.708Z,12.30
2023-03-28T20:11:26.589Z,12.40
2023-03-28T20:13:53.490Z,12.40
2023-03-28T20:16:23.654Z,12.40
2023-03-28T20:18:54.816Z,12.40
2023-03-28T20:21:21.739Z,12.40
2023-03-28T20:23:50.202Z,12.40
2023-03-28T20:26:25.997Z,12.40
2023-03-28T20:28:59.427Z,12.40
2023-03-28T20:31:27.779Z,12.40
2023-03-28T20:33:56.240Z,12.40
2023-03-28T20:36:28.339Z,12.40
2023-03-28T20:38:55.818Z,12.40
2023-03-28T20:41:24.022Z,12.40
2023-03-28T20:43:53.104Z,12.30
2023-03-28T20:46:22.475Z,12.30
2023-03-28T20:48:56.958Z,12.30
2023-03-28T20:51:29.194Z,12.30
2023-03-28T20:54:00.818Z,12.30
2023-03-28T20:56:29.694Z,12.30
2023-03-28T20:58:59.538Z,12.10
2023-03-28T21:01:32.863Z,12.20
2023-03-28T21:04:02.811Z,12.30
2023-03-28T21:06:38.143Z,12.20
2023-03-28T21:09:14.409Z,12.20
2023-03-28T21:11:44.704Z,12.30
2023-03-28T21:14:14.053Z,12.20
2023-03-28T21:16:44.027Z,12.20
2023-03-28T21:19:10.999Z,12.20
2023-03-28T21:21:38.133Z,12.20
2023-03-28T21:24:07.209Z,12.20
2023-03-28T21:26:34.414Z,12.20
2023-03-28T21:29:03.694Z,12.20
2023-03-28T21:31:33.238Z,12.20
2023-03-28T21:34:00.937Z,12.20
2023-03-28T21:36:28.407Z,12.20
2023-03-28T21:38:59.374Z,12.20
2023-03-28T21:41:29.584Z,12.20
2023-03-28T21:43:56.844Z,12.20
2023-03-28T21:46:26.619Z,12.10
2023-03-28T21:48:53.987Z,12.10
2023-03-28T21:51:26.241Z,12.10
2023-03-28T21:53:55.836Z,12.10
2023-03-28T21:56:23.095Z,12.10
2023-03-28T21:58:50.138Z,12.10
2023-03-28T22:01:20.201Z,12.20
2023-03-28T22:03:48.006Z,12.10
2023-03-28T22:06:17.351Z,12.10
2023-03-28T22:08:52.413Z,12.10
2023-03-28T22:11:27.858Z,12.10
2023-03-28T22:14:01.497Z,12.10
2023-03-28T22:16:39.047Z,12.10
2023-03-28T22:19:08.786Z,12.10
2023-03-28T22:21:37.161Z,12.10
2023-03-28T22:24:07.128Z,12.10
2023-03-28T22:26:34.602Z,12.10
2023-03-28T22:29:06.774Z,12.10
2023-03-28T22:31:33.911Z,12.10
2023-03-28T22:34:06.291Z,12.10
2023-03-28T22:36:38.044Z,12.10
2023-03-28T22:39:04.947Z,12.10
2023-03-28T22:41:31.873Z,12.10
2023-03-28T22:43:59.319Z,12.10
2023-03-28T22:46:26.290Z,12.10
2023-03-28T22:48:58.322Z,12.10
2023-03-28T22:51:30.164Z,12.10
2023-03-28T22:54:01.897Z,12.10
2023-03-28T22:56:31.837Z,11.90
2023-03-28T22:59:04.803Z,11.80
2023-03-28T23:01:34.497Z,12.00
2023-03-28T23:04:01.454Z,12.00
2023-03-28T23:06:31.515Z,12.00
2023-03-28T23:09:00.965Z,12.00
2023-03-28T23:11:27.859Z,12.00
2023-03-28T23:13:56.940Z,11.90
2023-03-28T23:16:23.873Z,12.00
2023-03-28T23:18:50.822Z,12.00
2023-03-28T23:21:17.718Z,12.00
2023-03-28T23:23:46.431Z,12.00
2023-03-28T23:26:14.397Z,12.00
2023-03-28T23:28:43.935Z,12.00
2023-03-28T23:31:12.020Z,11.90
2023-03-28T23:33:46.326Z,11.90
2023-03-28T23:36:20.958Z,11.90
2023-03-28T23:38:51.388Z,11.90
2023-03-28T23:41:21.025Z,11.80
2023-03-28T23:43:50.549Z,11.80
2023-03-28T23:46:20.505Z,11.80
2023-03-28T23:48:47.476Z,11.80
2023-03-28T23:51:16.667Z,11.80
2023-03-28T23:53:43.634Z,11.80
2023-03-28T23:56:11.649Z,11.80
2023-03-28T23:58:38.615Z,11.80
